Time,TemperatureF,DewpointF,PressureIn,WindDirection,WindDirectionDegrees,WindSpeedMPH,WindSpeedGustMPH,Humidity,HourlyPrecipIn,Conditions,Clouds,dailyrainin,SoftwareType,DateUTC
2013-03-30 00:03:00,57.4,52.3,29.99,SE,133,0.0,4.0,83,0.00,,,0.00,meteohub,2013-03-30 07:03:00,
2013-03-30 00:08:00,57.2,52.2,30.01,ENE,58,1.0,4.0,83,0.00,,,0.00,meteohub,2013-03-30 07:08:00,
2013-03-30 00:13:00,57.0,51.6,30.01,North,0,0.0,2.0,82,0.00,,,0.00,meteohub,2013-03-30 07:13:00,
2013-03-30 00:18:00,57.2,52.2,30.01,NW,312,1.0,2.0,83,0.00,,,0.00,meteohub,2013-03-30 07:18:00,
2013-03-30 00:23:00,57.0,52.0,30.01,SSW,192,2.0,2.0,83,0.00,,,0.00,meteohub,2013-03-30 07:23:00,
2013-03-30 00:28:00,57.0,51.6,30.01,NW,323,2.0,3.0,82,0.00,,,0.00,meteohub,2013-03-30 07:28:00,
2013-03-30 00:33:00,56.8,51.8,30.01,SSW,200,1.0,3.0,83,0.00,,,0.00,meteohub,2013-03-30 07:33:00,
2013-03-30 00:39:00,56.8,51.8,30.01,West,259,1.0,3.0,83,0.00,,,0.00,meteohub,2013-03-30 07:39:00,
2013-03-30 00:44:00,56.8,51.8,30.01,SE,143,3.0,3.0,83,0.00,,,0.00,meteohub,2013-03-30 07:44:00,
2013-03-30 00:49:00,56.7,51.8,30.01,NW,321,4.0,4.0,84,0.00,,,0.00,meteohub,2013-03-30 07:49:00,
2013-03-30 00:54:00,56.7,51.8,29.99,West,267,1.0,6.0,84,0.00,,,0.00,meteohub,2013-03-30 07:54:00,
2013-03-30 00:59:00,56.7,52.2,29.99,SSW,198,0.0,6.0,85,0.00,,,0.00,meteohub,2013-03-30 07:59:00,
2013-03-30 01:04:00,56.5,52.0,29.99,West,277,1.0,6.0,85,0.00,,,0.00,meteohub,2013-03-30 08:04:00,
2013-03-30 01:09:00,56.3,52.2,30.00,ESE,121,1.0,5.0,86,0.00,,,0.00,meteohub,2013-03-30 08:09:00,
2013-03-30 01:14:00,56.1,52.3,30.00,SSE,162,0.0,3.0,87,0.00,,,0.00,meteohub,2013-03-30 08:14:00,
2013-03-30 01:19:00,55.9,52.2,30.00,SSE,162,0.0,3.0,87,0.00,,,0.00,meteohub,2013-03-30 08:19:00,
2013-03-30 01:24:00,55.9,52.2,30.01,SE,146,0.0,3.0,87,0.00,,,0.00,meteohub,2013-03-30 08:24:00,
2013-03-30 01:29:00,55.8,52.3,30.01,SE,146,1.0,3.0,88,0.00,,,0.00,meteohub,2013-03-30 08:29:00,
2013-03-30 01:35:00,55.8,52.3,30.00,SW,219,2.0,2.0,88,0.00,,,0.00,meteohub,2013-03-30 08:35:00,
2013-03-30 01:40:00,55.6,51.8,30.00,SW,229,2.0,3.0,87,0.00,,,0.00,meteohub,2013-03-30 08:40:00,
2013-03-30 01:45:00,55.2,51.4,30.00,SW,227,0.0,3.0,87,0.00,,,0.00,meteohub,2013-03-30 08:45:00,
2013-03-30 01:50:00,55.0,50.9,30.01,SSW,198,1.0,3.0,86,0.00,,,0.00,meteohub,2013-03-30 08:50:00,
2013-03-30 01:55:00,54.9,50.4,30.01,SSE,160,0.0,2.0,85,0.00,,,0.00,meteohub,2013-03-30 08:55:00,
2013-03-30 02:02:00,54.3,49.8,30.01,SW,232,1.0,2.0,85,0.00,,,0.00,meteohub,2013-03-30 09:02:00,
2013-03-30 02:08:00,54.1,49.8,30.01,SW,232,0.0,4.0,85,0.00,,,0.00,meteohub,2013-03-30 09:08:00,
2013-03-30 02:13:00,54.0,49.8,30.01,SW,232,0.0,4.0,86,0.00,,,0.00,meteohub,2013-03-30 09:13:00,
2013-03-30 02:18:00,53.8,49.6,30.01,SW,229,0.0,4.0,86,0.00,,,0.00,meteohub,2013-03-30 09:18:00,
2013-03-30 02:23:00,53.8,49.6,30.00,SW,229,0.0,3.0,86,0.00,,,0.00,meteohub,2013-03-30 09:23:00,
2013-03-30 02:28:00,53.6,49.5,30.00,SW,229,0.0,1.0,86,0.00,,,0.00,meteohub,2013-03-30 09:28:00,
2013-03-30 02:33:00,53.6,49.8,30.00,SSW,194,3.0,3.0,87,0.00,,,0.00,meteohub,2013-03-30 09:33:00,
2013-03-30 02:38:00,53.4,49.6,30.01,SSW,196,0.0,3.0,87,0.00,,,0.00,meteohub,2013-03-30 09:38:00,
2013-03-30 02:43:00,53.4,49.6,30.01,South,191,2.0,4.0,87,0.00,,,0.00,meteohub,2013-03-30 09:43:00,
2013-03-30 02:44:00,53.4,49.6,30.01,SSW,207,1.0,4.0,87,0.00,,,0.00,meteohub,2013-03-30 09:44:00,
2013-03-30 02:49:00,53.2,49.5,30.01,SW,229,2.0,6.0,87,0.00,,,0.00,meteohub,2013-03-30 09:49:00,
2013-03-30 02:55:00,52.9,49.1,30.00,West,273,0.0,6.0,87,0.00,,,0.00,meteohub,2013-03-30 09:55:00,
2013-03-30 03:00:00,52.5,49.1,30.00,West,275,0.0,7.0,88,0.00,,,0.00,meteohub,2013-03-30 10:00:00,
2013-03-30 03:05:00,52.3,49.3,30.00,SW,215,0.0,7.0,89,0.00,,,0.00,meteohub,2013-03-30 10:05:00,
2013-03-30 03:10:00,52.3,49.3,30.00,SSW,208,1.0,7.0,89,0.00,,,0.00,meteohub,2013-03-30 10:10:00,
2013-03-30 03:15:00,52.2,49.1,30.00,SSW,194,1.0,2.0,89,0.00,,,0.00,meteohub,2013-03-30 10:15:00,
2013-03-30 03:20:00,52.2,49.3,29.99,East,88,0.0,4.0,90,0.00,,,0.00,meteohub,2013-03-30 10:20:00,
2013-03-30 03:26:00,52.2,49.1,29.99,SSE,168,1.0,4.0,89,0.00,,,0.00,meteohub,2013-03-30 10:26:00,
2013-03-30 03:31:00,52.2,49.3,29.99,SW,219,0.0,4.0,90,0.00,,,0.00,meteohub,2013-03-30 10:31:00,
2013-03-30 03:36:00,52.2,49.3,29.99,SW,218,0.0,2.0,90,0.00,,,0.00,meteohub,2013-03-30 10:36:00,
2013-03-30 03:41:00,52.0,49.1,29.99,SW,219,0.0,2.0,90,0.00,,,0.00,meteohub,2013-03-30 10:41:00,
2013-03-30 03:47:00,52.0,49.1,29.99,SW,219,0.0,3.0,90,0.00,,,0.00,meteohub,2013-03-30 10:47:00,
2013-03-30 03:52:00,52.0,49.1,29.98,SSW,200,1.0,3.0,90,0.00,,,0.00,meteohub,2013-03-30 10:52:00,
2013-03-30 03:58:00,52.0,49.1,29.98,SSE,149,1.0,3.0,90,0.00,,,0.00,meteohub,2013-03-30 10:58:00,
2013-03-30 04:03:00,52.0,49.5,29.98,ESE,105,0.0,3.0,91,0.00,,,0.00,meteohub,2013-03-30 11:03:00,
2013-03-30 04:08:00,52.0,49.5,29.98,ESE,105,0.0,4.0,91,0.00,,,0.00,meteohub,2013-03-30 11:08:00,
2013-03-30 04:13:00,52.0,49.5,29.98,ESE,105,0.0,6.0,91,0.00,,,0.00,meteohub,2013-03-30 11:13:00,
2013-03-30 04:18:00,51.8,49.3,29.98,ESE,105,0.0,6.0,91,0.00,,,0.00,meteohub,2013-03-30 11:18:00,
2013-03-30 04:23:00,51.8,49.3,29.97,SSW,200,0.0,6.0,91,0.00,,,0.00,meteohub,2013-03-30 11:23:00,
2013-03-30 04:28:00,51.8,49.3,29.97,SSW,202,0.0,5.0,91,0.00,,,0.00,meteohub,2013-03-30 11:28:00,
2013-03-30 04:33:00,52.0,49.5,29.97,West,260,1.0,5.0,91,0.00,,,0.00,meteohub,2013-03-30 11:33:00,
2013-03-30 04:38:00,52.0,49.5,29.97,West,260,1.0,3.0,91,0.00,,,0.00,meteohub,2013-03-30 11:38:00,
2013-03-30 04:43:00,52.0,49.5,29.97,WSW,249,1.0,3.0,91,0.00,,,0.00,meteohub,2013-03-30 11:43:00,
2013-03-30 04:48:00,52.0,49.5,29.97,WSW,249,1.0,3.0,91,0.00,,,0.00,meteohub,2013-03-30 11:48:00,
2013-03-30 04:53:00,52.2,49.6,29.97,WSW,249,0.0,1.0,91,0.00,,,0.00,meteohub,2013-03-30 11:53:00,
2013-03-30 04:58:00,52.2,49.6,29.97,WSW,248,0.0,3.0,91,0.00,,,0.00,meteohub,2013-03-30 11:58:00,
2013-03-30 05:03:00,52.2,49.6,29.97,WSW,249,0.0,3.0,91,0.00,,,0.00,meteohub,2013-03-30 12:03:00,
2013-03-30 05:08:00,52.2,49.6,29.97,WSW,249,0.0,3.0,91,0.00,,,0.00,meteohub,2013-03-30 12:08:00,
2013-03-30 05:14:00,52.0,49.5,29.97,WSW,249,0.0,3.0,91,0.00,,,0.00,meteohub,2013-03-30 12:14:00,
2013-03-30 05:19:00,52.0,49.5,29.97,WSW,249,1.0,2.0,91,0.00,,,0.00,meteohub,2013-03-30 12:19:00,
2013-03-30 05:25:00,52.0,49.5,29.96,SSE,163,1.0,1.0,91,0.00,,,0.00,meteohub,2013-03-30 12:25:00,
2013-03-30 05:30:00,52.0,49.5,29.96,SSW,195,1.0,3.0,91,0.00,,,0.00,meteohub,2013-03-30 12:30:00,
2013-03-30 05:35:00,51.8,49.6,29.96,SSW,195,0.0,3.0,92,0.00,,,0.00,meteohub,2013-03-30 12:35:00,
2013-03-30 05:40:00,51.8,49.6,29.96,SE,140,0.0,3.0,92,0.00,,,0.00,meteohub,2013-03-30 12:40:00,
2013-03-30 05:45:00,51.8,49.6,29.96,SE,140,1.0,3.0,92,0.00,,,0.00,meteohub,2013-03-30 12:45:00,
2013-03-30 05:50:00,51.6,49.5,29.96,SE,140,0.0,2.0,92,0.00,,,0.00,meteohub,2013-03-30 12:50:00,
2013-03-30 05:56:00,51.6,49.5,29.96,SE,140,0.0,2.0,92,0.00,,,0.00,meteohub,2013-03-30 12:56:00,
2013-03-30 06:01:00,51.6,49.5,29.96,SE,140,0.0,2.0,92,0.00,,,0.00,meteohub,2013-03-30 13:01:00,
2013-03-30 06:06:00,51.6,49.5,29.96,SE,146,0.0,4.0,92,0.00,,,0.00,meteohub,2013-03-30 13:06:00,
2013-03-30 06:12:00,51.6,49.5,29.96,SE,146,0.0,4.0,92,0.00,,,0.00,meteohub,2013-03-30 13:12:00,
2013-03-30 06:17:00,51.4,49.3,29.96,SE,146,0.0,1.0,92,0.00,,,0.00,meteohub,2013-03-30 13:17:00,
2013-03-30 06:22:00,51.4,49.3,29.97,SE,145,0.0,1.0,92,0.00,,,0.00,meteohub,2013-03-30 13:22:00,
2013-03-30 06:27:00,51.4,49.3,29.97,SE,146,0.0,1.0,92,0.00,,,0.00,meteohub,2013-03-30 13:27:00,
2013-03-30 06:32:00,51.4,49.5,29.97,South,183,0.0,1.0,93,0.00,,,0.00,meteohub,2013-03-30 13:32:00,
2013-03-30 06:37:00,51.3,49.1,29.98,SSW,211,0.0,2.0,92,0.00,,,0.00,meteohub,2013-03-30 13:37:00,
2013-03-30 06:42:00,51.3,49.1,29.98,SSW,207,1.0,3.0,92,0.00,,,0.00,meteohub,2013-03-30 13:42:00,
2013-03-30 06:47:00,51.1,48.9,29.98,SSW,200,1.0,4.0,92,0.00,,,0.00,meteohub,2013-03-30 13:47:00,
2013-03-30 06:52:00,51.1,49.1,29.99,South,191,1.0,4.0,93,0.00,,,0.00,meteohub,2013-03-30 13:52:00,
2013-03-30 06:57:00,50.9,48.9,29.99,South,186,0.0,4.0,93,0.00,,,0.00,meteohub,2013-03-30 13:57:00,
2013-03-30 07:02:00,50.7,48.7,29.99,South,188,0.0,3.0,93,0.00,,,0.00,meteohub,2013-03-30 14:02:00,
2013-03-30 07:07:00,50.7,48.7,30.01,SSE,166,0.0,3.0,93,0.00,,,0.00,meteohub,2013-03-30 14:07:00,
2013-03-30 07:12:00,50.7,48.7,30.01,SSE,165,0.0,1.0,93,0.00,,,0.00,meteohub,2013-03-30 14:12:00,
2013-03-30 07:17:00,50.5,48.6,30.01,SSE,165,0.0,1.0,93,0.00,,,0.00,meteohub,2013-03-30 14:17:00,
2013-03-30 07:22:00,50.5,48.6,30.00,SSE,165,0.0,0.0,93,0.00,,,0.00,meteohub,2013-03-30 14:22:00,
2013-03-30 07:27:00,50.5,48.6,30.00,SSE,165,0.0,0.0,93,0.00,,,0.00,meteohub,2013-03-30 14:27:00,
2013-03-30 07:33:00,50.7,49.1,30.00,SSE,165,0.0,0.0,94,0.00,,,0.00,meteohub,2013-03-30 14:33:00,
2013-03-30 07:38:00,50.7,48.7,30.01,WNW,296,1.0,2.0,93,0.00,,,0.00,meteohub,2013-03-30 14:38:00,
2013-03-30 07:43:00,50.7,48.7,30.01,WNW,296,0.0,2.0,93,0.00,,,0.00,meteohub,2013-03-30 14:43:00,
2013-03-30 07:48:00,50.7,48.7,30.01,WNW,296,0.0,2.0,93,0.00,,,0.00,meteohub,2013-03-30 14:48:00,
2013-03-30 07:53:00,50.7,48.7,30.01,SW,226,1.0,2.0,93,0.00,,,0.00,meteohub,2013-03-30 14:53:00,
2013-03-30 07:58:00,50.7,48.7,30.01,SSW,207,2.0,2.0,93,0.00,,,0.00,meteohub,2013-03-30 14:58:00,
2013-03-30 08:03:00,50.7,48.7,30.01,SSW,203,1.0,2.0,93,0.00,,,0.00,meteohub,2013-03-30 15:03:00,
2013-03-30 08:08:00,50.9,48.9,30.02,SSW,202,0.0,2.0,93,0.00,,,0.00,meteohub,2013-03-30 15:08:00,
2013-03-30 08:13:00,50.9,48.9,30.02,SSE,149,0.0,2.0,93,0.00,,,0.00,meteohub,2013-03-30 15:13:00,
2013-03-30 08:19:00,51.1,49.1,30.02,SSE,150,0.0,2.0,93,0.00,,,0.00,meteohub,2013-03-30 15:19:00,
2013-03-30 08:24:00,51.1,48.9,30.02,South,184,1.0,2.0,92,0.00,,,0.00,meteohub,2013-03-30 15:24:00,
2013-03-30 08:29:00,51.1,48.9,30.02,SE,142,1.0,1.0,92,0.00,,,0.00,meteohub,2013-03-30 15:29:00,
2013-03-30 08:34:00,51.1,48.9,30.02,SSW,198,2.0,2.0,92,0.00,,,0.00,meteohub,2013-03-30 15:34:00,
2013-03-30 08:39:00,51.1,49.1,30.03,SE,146,1.0,3.0,93,0.00,,,0.00,meteohub,2013-03-30 15:39:00,
2013-03-30 08:44:00,50.9,48.9,30.03,SE,146,0.0,3.0,93,0.00,,,0.00,meteohub,2013-03-30 15:44:00,
2013-03-30 08:49:00,51.1,49.1,30.03,ENE,65,0.0,2.0,93,0.00,,,0.00,meteohub,2013-03-30 15:49:00,
2013-03-30 08:54:00,51.1,49.1,30.03,SSE,149,2.0,2.0,93,0.00,,,0.00,meteohub,2013-03-30 15:54:00,
2013-03-30 08:59:00,51.3,49.1,30.03,ENE,59,1.0,3.0,92,0.00,,,0.00,meteohub,2013-03-30 15:59:00,
2013-03-30 09:05:00,51.3,49.1,30.03,ENE,61,0.0,3.0,92,0.00,,,0.00,meteohub,2013-03-30 16:05:00,
2013-03-30 09:10:00,51.6,49.6,30.02,ENE,60,0.0,2.0,93,0.00,,,0.00,meteohub,2013-03-30 16:10:00,
2013-03-30 09:15:00,51.8,49.6,30.02,West,269,0.0,1.0,92,0.00,,,0.00,meteohub,2013-03-30 16:15:00,
2013-03-30 09:20:00,52.0,49.6,30.02,West,269,1.0,2.0,92,0.00,,,0.00,meteohub,2013-03-30 16:20:00,
2013-03-30 09:25:00,52.3,49.8,30.02,West,267,1.0,2.0,91,0.00,,,0.00,meteohub,2013-03-30 16:25:00,
2013-03-30 09:30:00,52.5,49.6,30.02,ESE,112,1.0,2.0,90,0.00,,,0.00,meteohub,2013-03-30 16:30:00,
2013-03-30 09:36:00,52.9,50.0,30.02,SSW,207,1.0,2.0,90,0.00,,,0.00,meteohub,2013-03-30 16:36:00,
2013-03-30 09:41:00,53.1,49.8,30.02,SE,125,0.0,2.0,89,0.00,,,0.00,meteohub,2013-03-30 16:41:00,
2013-03-30 09:46:00,53.2,50.0,30.02,West,263,1.0,2.0,89,0.00,,,0.00,meteohub,2013-03-30 16:46:00,
2013-03-30 09:51:00,53.8,50.5,30.02,WSW,242,2.0,2.0,89,0.00,,,0.00,meteohub,2013-03-30 16:51:00,
2013-03-30 09:56:00,54.1,50.4,30.02,SSW,205,1.0,4.0,87,0.00,,,0.00,meteohub,2013-03-30 16:56:00,
2013-03-30 10:01:00,54.5,50.7,30.02,SSW,209,0.0,4.0,87,0.00,,,0.00,meteohub,2013-03-30 17:01:00,
2013-03-30 10:06:00,54.7,50.5,30.02,SE,126,0.0,4.0,86,0.00,,,0.00,meteohub,2013-03-30 17:06:00,
2013-03-30 10:11:00,55.0,50.9,30.02,ESE,109,0.0,4.0,86,0.00,,,0.00,meteohub,2013-03-30 17:11:00,
2013-03-30 10:16:00,55.6,51.4,30.02,West,275,2.0,2.0,86,0.00,,,0.00,meteohub,2013-03-30 17:16:00,
2013-03-30 10:21:00,55.6,50.9,30.01,West,277,0.0,2.0,84,0.00,,,0.00,meteohub,2013-03-30 17:21:00,
2013-03-30 10:27:00,55.8,51.3,30.01,SW,218,2.0,2.0,85,0.00,,,0.00,meteohub,2013-03-30 17:27:00,
2013-03-30 10:32:00,56.5,51.4,30.01,SW,217,0.0,2.0,83,0.00,,,0.00,meteohub,2013-03-30 17:32:00,
2013-03-30 10:37:00,56.8,51.4,30.01,WSW,250,1.0,3.0,82,0.00,,,0.00,meteohub,2013-03-30 17:37:00,
2013-03-30 10:42:00,57.4,51.6,30.01,South,188,1.0,3.0,81,0.00,,,0.00,meteohub,2013-03-30 17:42:00,
2013-03-30 10:47:00,57.7,52.0,30.01,SW,223,1.0,3.0,81,0.00,,,0.00,meteohub,2013-03-30 17:47:00,
2013-03-30 10:52:00,57.7,51.6,30.03,SSW,199,1.0,4.0,80,0.00,,,0.00,meteohub,2013-03-30 17:52:00,
2013-03-30 10:57:00,58.3,52.2,30.03,SW,225,1.0,5.0,80,0.00,,,0.00,meteohub,2013-03-30 17:57:00,
2013-03-30 11:02:00,58.6,51.8,30.03,SSW,202,2.0,5.0,78,0.00,,,0.00,meteohub,2013-03-30 18:02:00,
2013-03-30 11:07:00,58.5,52.0,30.02,SSE,148,1.0,5.0,79,0.00,,,0.00,meteohub,2013-03-30 18:07:00,
2013-03-30 11:12:00,58.3,51.4,30.02,SW,233,5.0,5.0,78,0.00,,,0.00,meteohub,2013-03-30 18:12:00,
2013-03-30 11:18:00,58.3,52.2,30.02,South,190,2.0,7.0,80,0.00,,,0.00,meteohub,2013-03-30 18:18:00,
2013-03-30 11:23:00,58.3,51.8,30.03,SW,230,1.0,7.0,79,0.00,,,0.00,meteohub,2013-03-30 18:23:00,
2013-03-30 11:28:00,58.8,52.0,30.03,SSW,194,3.0,6.0,78,0.00,,,0.00,meteohub,2013-03-30 18:28:00,
2013-03-30 11:33:00,59.4,52.5,30.03,SW,236,1.0,9.0,78,0.00,,,0.00,meteohub,2013-03-30 18:33:00,
2013-03-30 11:38:00,60.3,52.7,30.02,West,280,5.0,9.0,76,0.00,,,0.00,meteohub,2013-03-30 18:38:00,
2013-03-30 11:43:00,60.6,52.7,30.02,SSW,197,2.0,5.0,75,0.00,,,0.00,meteohub,2013-03-30 18:43:00,
2013-03-30 11:48:00,60.4,52.5,30.02,SW,227,3.0,10.0,75,0.00,,,0.00,meteohub,2013-03-30 18:48:00,
2013-03-30 11:53:00,60.1,52.5,30.02,WSW,242,2.0,10.0,76,0.00,,,0.00,meteohub,2013-03-30 18:53:00,
2013-03-30 11:58:00,60.3,52.7,30.02,WSW,240,3.0,10.0,76,0.00,,,0.00,meteohub,2013-03-30 18:58:00,
2013-03-30 12:03:00,60.1,52.5,30.02,SSW,211,4.0,7.0,76,0.00,,,0.00,meteohub,2013-03-30 19:03:00,
2013-03-30 12:08:00,60.3,53.8,30.02,SSW,207,6.0,11.0,79,0.00,,,0.00,meteohub,2013-03-30 19:08:00,
2013-03-30 12:14:00,60.6,53.1,30.02,South,191,4.0,11.0,76,0.00,,,0.00,meteohub,2013-03-30 19:14:00,
2013-03-30 12:19:00,61.0,53.4,30.02,SSW,196,4.0,11.0,76,0.00,,,0.00,meteohub,2013-03-30 19:19:00,
2013-03-30 12:24:00,61.2,53.6,30.03,WSW,254,2.0,11.0,76,0.00,,,0.00,meteohub,2013-03-30 19:24:00,
2013-03-30 12:29:00,61.2,53.6,30.03,SW,236,3.0,11.0,76,0.00,,,0.00,meteohub,2013-03-30 19:29:00,
2013-03-30 12:34:00,60.6,53.1,30.03,SSW,211,3.0,9.0,76,0.00,,,0.00,meteohub,2013-03-30 19:34:00,
2013-03-30 12:39:00,60.4,53.2,30.03,SSW,211,2.0,9.0,77,0.00,,,0.00,meteohub,2013-03-30 19:39:00,
2013-03-30 12:44:00,60.4,53.2,30.03,SW,214,1.0,9.0,77,0.00,,,0.00,meteohub,2013-03-30 19:44:00,
2013-03-30 12:49:00,60.3,53.1,30.03,West,269,2.0,7.0,77,0.00,,,0.00,meteohub,2013-03-30 19:49:00,
2013-03-30 12:55:00,60.1,53.2,30.03,SSW,209,0.0,7.0,78,0.00,,,0.00,meteohub,2013-03-30 19:55:00,
2013-03-30 13:00:00,60.3,53.1,30.03,WSW,244,2.0,7.0,77,0.00,,,0.00,meteohub,2013-03-30 20:00:00,
2013-03-30 13:05:00,60.1,52.9,30.02,West,264,2.0,4.0,77,0.00,,,0.00,meteohub,2013-03-30 20:05:00,
2013-03-30 13:10:00,59.7,52.9,30.02,NW,321,2.0,4.0,78,0.00,,,0.00,meteohub,2013-03-30 20:10:00,
2013-03-30 13:15:00,59.5,52.7,30.02,WSW,253,2.0,4.0,78,0.00,,,0.00,meteohub,2013-03-30 20:15:00,
2013-03-30 13:20:00,59.2,52.7,30.01,WSW,251,1.0,4.0,79,0.00,,,0.00,meteohub,2013-03-30 20:20:00,
2013-03-30 13:25:00,58.8,53.4,30.01,WSW,245,1.0,4.0,82,0.00,,,0.00,meteohub,2013-03-30 20:25:00,
2013-03-30 13:30:00,58.8,53.1,30.01,NNE,27,1.0,4.0,81,0.01,,,0.01,meteohub,2013-03-30 20:30:00,
2013-03-30 13:35:00,58.8,53.6,30.01,West,275,1.0,3.0,83,0.01,,,0.01,meteohub,2013-03-30 20:35:00,
2013-03-30 13:41:00,58.8,53.4,30.01,West,277,1.0,2.0,82,0.01,,,0.01,meteohub,2013-03-30 20:41:00,
2013-03-30 13:46:00,58.8,54.0,30.01,NNE,29,3.0,3.0,84,0.01,,,0.01,meteohub,2013-03-30 20:46:00,
2013-03-30 13:51:00,58.8,53.6,30.01,NW,309,1.0,4.0,83,0.01,,,0.01,meteohub,2013-03-30 20:51:00,
2013-03-30 13:56:00,58.8,53.6,30.01,NW,304,2.0,4.0,83,0.01,,,0.01,meteohub,2013-03-30 20:56:00,
2013-03-30 14:01:00,58.8,53.6,30.01,West,275,1.0,3.0,83,0.01,,,0.01,meteohub,2013-03-30 21:01:00,
2013-03-30 14:06:00,59.2,54.0,30.00,WSW,256,2.0,3.0,83,0.02,,,0.01,meteohub,2013-03-30 21:06:00,
2013-03-30 14:11:00,59.2,53.6,30.00,WNW,301,1.0,2.0,82,0.02,,,0.02,meteohub,2013-03-30 21:11:00,
2013-03-30 14:16:00,59.2,54.3,30.00,SW,233,0.0,3.0,84,0.01,,,0.02,meteohub,2013-03-30 21:16:00,
2013-03-30 14:21:00,59.5,55.0,30.00,WSW,248,2.0,3.0,85,0.01,,,0.02,meteohub,2013-03-30 21:21:00,
2013-03-30 14:26:00,59.7,55.8,30.00,South,191,2.0,6.0,87,0.01,,,0.02,meteohub,2013-03-30 21:26:00,
2013-03-30 14:31:00,60.1,56.5,30.00,WSW,254,1.0,7.0,88,0.01,,,0.02,meteohub,2013-03-30 21:31:00,
2013-03-30 14:36:00,60.3,55.8,30.00,SSW,210,1.0,7.0,85,0.01,,,0.02,meteohub,2013-03-30 21:36:00,
2013-03-30 14:41:00,60.3,55.8,30.00,WNW,284,1.0,5.0,85,0.01,,,0.02,meteohub,2013-03-30 21:41:00,
2013-03-30 14:46:00,60.6,56.1,30.00,ENE,60,1.0,5.0,85,0.01,,,0.02,meteohub,2013-03-30 21:46:00,
2013-03-30 14:51:00,60.6,55.8,29.99,NNE,20,3.0,3.0,84,0.01,,,0.02,meteohub,2013-03-30 21:51:00,
2013-03-30 14:56:00,61.0,55.8,29.99,NW,304,4.0,5.0,83,0.00,,,0.02,meteohub,2013-03-30 21:56:00,
2013-03-30 15:02:00,61.3,56.1,29.99,WSW,254,3.0,5.0,83,0.00,,,0.02,meteohub,2013-03-30 22:02:00,
2013-03-30 15:07:00,61.5,56.3,29.98,NW,311,2.0,5.0,83,0.00,,,0.02,meteohub,2013-03-30 22:07:00,
2013-03-30 15:12:00,62.1,56.1,29.98,North,0,1.0,4.0,81,0.00,,,0.02,meteohub,2013-03-30 22:12:00,
2013-03-30 15:17:00,62.6,56.3,29.98,SW,222,1.0,6.0,80,0.00,,,0.02,meteohub,2013-03-30 22:17:00,
2013-03-30 15:22:00,63.3,54.9,29.97,West,275,1.0,6.0,74,0.00,,,0.02,meteohub,2013-03-30 22:22:00,
2013-03-30 15:27:00,63.7,54.1,29.97,WNW,302,2.0,4.0,71,0.00,,,0.02,meteohub,2013-03-30 22:27:00,
2013-03-30 15:32:00,63.9,52.7,29.97,WNW,298,2.0,5.0,67,0.00,,,0.02,meteohub,2013-03-30 22:32:00,
2013-03-30 15:37:00,63.9,53.1,29.97,West,279,3.0,5.0,68,0.00,,,0.02,meteohub,2013-03-30 22:37:00,
2013-03-30 15:42:00,64.0,52.0,29.97,West,260,2.0,5.0,65,0.00,,,0.02,meteohub,2013-03-30 22:42:00,
2013-03-30 15:47:00,64.0,52.5,29.97,WNW,285,2.0,4.0,66,0.00,,,0.02,meteohub,2013-03-30 22:47:00,
2013-03-30 15:52:00,64.4,52.9,29.96,NW,326,2.0,4.0,66,0.00,,,0.02,meteohub,2013-03-30 22:52:00,
2013-03-30 15:57:00,64.6,52.9,29.96,NNE,28,0.0,3.0,66,0.00,,,0.02,meteohub,2013-03-30 22:57:00,
2013-03-30 16:02:00,64.9,53.2,29.96,SSW,205,1.0,2.0,66,0.00,,,0.02,meteohub,2013-03-30 23:02:00,
2013-03-30 16:08:00,64.9,52.9,29.96,West,267,1.0,2.0,65,0.00,,,0.02,meteohub,2013-03-30 23:08:00,
2013-03-30 16:13:00,64.8,53.1,29.96,SW,229,3.0,3.0,66,0.00,,,0.02,meteohub,2013-03-30 23:13:00,
2013-03-30 16:18:00,64.8,53.1,29.96,SW,236,1.0,3.0,66,0.00,,,0.02,meteohub,2013-03-30 23:18:00,
2013-03-30 16:23:00,64.8,53.1,29.95,WSW,256,1.0,3.0,66,0.00,,,0.02,meteohub,2013-03-30 23:23:00,
2013-03-30 16:28:00,64.9,53.2,29.95,West,281,0.0,2.0,66,0.00,,,0.02,meteohub,2013-03-30 23:28:00,
2013-03-30 16:33:00,65.1,54.0,29.95,WSW,256,2.0,3.0,67,0.00,,,0.02,meteohub,2013-03-30 23:33:00,
2013-03-30 16:38:00,65.1,53.1,29.95,SW,218,0.0,4.0,65,0.00,,,0.02,meteohub,2013-03-30 23:38:00,
2013-03-30 16:43:00,65.5,53.4,29.95,SW,232,1.0,4.0,65,0.00,,,0.02,meteohub,2013-03-30 23:43:00,
2013-03-30 16:48:00,65.7,53.6,29.95,SW,233,4.0,4.0,65,0.00,,,0.02,meteohub,2013-03-30 23:48:00,
2013-03-30 16:54:00,64.4,53.2,29.95,SW,222,6.0,11.0,67,0.00,,,0.02,meteohub,2013-03-30 23:54:00,
2013-03-30 16:59:00,63.7,53.2,29.95,SW,236,12.0,14.0,69,0.00,,,0.02,meteohub,2013-03-30 23:59:00,
2013-03-30 17:04:00,63.0,53.1,29.95,SW,214,4.0,14.0,70,0.00,,,0.02,meteohub,2013-03-31 00:04:00,
2013-03-30 17:09:00,62.8,52.5,29.96,SW,223,3.0,14.0,69,0.00,,,0.02,meteohub,2013-03-31 00:09:00,
2013-03-30 17:14:00,62.4,52.5,29.96,SSW,208,3.0,11.0,70,0.00,,,0.02,meteohub,2013-03-31 00:14:00,
2013-03-30 17:19:00,62.2,52.7,29.96,SW,226,5.0,10.0,71,0.00,,,0.02,meteohub,2013-03-31 00:19:00,
2013-03-30 17:24:00,62.1,52.5,29.96,WNW,287,2.0,9.0,71,0.00,,,0.02,meteohub,2013-03-31 00:24:00,
2013-03-30 17:29:00,61.7,52.2,29.96,SSW,200,3.0,9.0,71,0.00,,,0.02,meteohub,2013-03-31 00:29:00,
2013-03-30 17:34:00,61.0,52.0,29.96,West,271,1.0,6.0,72,0.00,,,0.02,meteohub,2013-03-31 00:34:00,
2013-03-30 17:39:00,60.6,52.0,29.95,NNW,328,2.0,6.0,73,0.00,,,0.02,meteohub,2013-03-31 00:39:00,
2013-03-30 17:44:00,60.4,51.8,29.95,NW,326,4.0,6.0,73,0.00,,,0.02,meteohub,2013-03-31 00:44:00,
2013-03-30 17:49:00,60.1,51.8,29.95,WNW,287,1.0,5.0,74,0.00,,,0.02,meteohub,2013-03-31 00:49:00,
2013-03-30 17:54:00,59.7,51.8,29.96,WSW,254,1.0,5.0,75,0.00,,,0.02,meteohub,2013-03-31 00:54:00,
2013-03-30 17:59:00,59.5,51.6,29.96,West,259,3.0,5.0,75,0.00,,,0.02,meteohub,2013-03-31 00:59:00,
2013-03-30 18:04:00,59.4,51.4,29.96,West,268,3.0,5.0,75,0.00,,,0.02,meteohub,2013-03-31 01:04:00,
2013-03-30 18:09:00,59.0,51.4,29.97,SW,226,1.0,5.0,76,0.00,,,0.02,meteohub,2013-03-31 01:09:00,
2013-03-30 18:15:00,58.8,50.9,29.97,West,275,1.0,5.0,75,0.00,,,0.02,meteohub,2013-03-31 01:15:00,
2013-03-30 18:20:00,58.8,51.3,29.98,West,277,0.0,5.0,76,0.00,,,0.02,meteohub,2013-03-31 01:20:00,
2013-03-30 18:25:00,58.8,51.3,29.98,NW,312,2.0,5.0,76,0.00,,,0.02,meteohub,2013-03-31 01:25:00,
2013-03-30 18:30:00,58.8,50.9,29.98,WNW,288,2.0,3.0,75,0.00,,,0.02,meteohub,2013-03-31 01:30:00,
2013-03-30 18:35:00,58.6,51.1,29.98,SW,230,0.0,3.0,76,0.00,,,0.02,meteohub,2013-03-31 01:35:00,
2013-03-30 18:40:00,58.8,51.3,29.98,WNW,291,0.0,3.0,76,0.00,,,0.02,meteohub,2013-03-31 01:40:00,
2013-03-30 18:45:00,58.8,51.3,29.98,West,280,2.0,3.0,76,0.00,,,0.02,meteohub,2013-03-31 01:45:00,
2013-03-30 18:50:00,58.8,51.3,29.97,NW,310,2.0,3.0,76,0.00,,,0.02,meteohub,2013-03-31 01:50:00,
2013-03-30 18:56:00,58.6,51.1,29.97,NW,315,4.0,4.0,76,0.00,,,0.02,meteohub,2013-03-31 01:56:00,
2013-03-30 19:01:00,58.5,50.9,29.97,NW,308,2.0,6.0,76,0.00,,,0.02,meteohub,2013-03-31 02:01:00,
2013-03-30 19:06:00,58.5,51.3,29.97,NNW,329,1.0,6.0,77,0.00,,,0.02,meteohub,2013-03-31 02:06:00,
2013-03-30 19:11:00,58.5,50.9,29.97,NNW,338,0.0,6.0,76,0.00,,,0.02,meteohub,2013-03-31 02:11:00,
2013-03-30 19:16:00,58.3,50.7,29.97,NW,307,1.0,3.0,76,0.00,,,0.02,meteohub,2013-03-31 02:16:00,
2013-03-30 19:21:00,58.3,50.7,29.97,NW,312,1.0,3.0,76,0.00,,,0.02,meteohub,2013-03-31 02:21:00,
2013-03-30 19:27:00,58.3,50.7,29.97,NNW,331,1.0,3.0,76,0.00,,,0.02,meteohub,2013-03-31 02:27:00,
2013-03-30 19:32:00,58.1,50.5,29.97,WNW,295,1.0,3.0,76,0.00,,,0.02,meteohub,2013-03-31 02:32:00,
2013-03-30 19:37:00,57.9,50.4,29.97,WNW,290,0.0,3.0,76,0.00,,,0.02,meteohub,2013-03-31 02:37:00,
2013-03-30 19:42:00,57.9,50.4,29.97,SW,227,0.0,3.0,76,0.00,,,0.02,meteohub,2013-03-31 02:42:00,
2013-03-30 19:47:00,57.9,50.7,29.97,SW,229,1.0,2.0,77,0.00,,,0.02,meteohub,2013-03-31 02:47:00,
2013-03-30 19:52:00,57.7,50.9,29.98,NW,315,1.0,2.0,78,0.00,,,0.02,meteohub,2013-03-31 02:52:00,
2013-03-30 19:57:00,57.6,51.1,29.98,NW,313,2.0,2.0,79,0.00,,,0.02,meteohub,2013-03-31 02:57:00,
2013-03-30 20:02:00,57.2,51.4,29.98,NW,314,0.0,2.0,81,0.01,,,0.03,meteohub,2013-03-31 03:02:00,
2013-03-30 20:07:00,56.8,51.8,29.99,East,99,0.0,3.0,83,0.01,,,0.03,meteohub,2013-03-31 03:07:00,
2013-03-30 20:13:00,56.7,52.2,29.99,East,99,0.0,2.0,85,0.01,,,0.03,meteohub,2013-03-31 03:13:00,
2013-03-30 20:18:00,56.5,52.3,29.99,WNW,298,2.0,2.0,86,0.02,,,0.04,meteohub,2013-03-31 03:18:00,
2013-03-30 20:23:00,55.9,52.5,29.97,WNW,283,1.0,3.0,88,0.03,,,0.07,meteohub,2013-03-31 03:23:00,
2013-03-30 20:28:00,55.6,52.7,29.97,SW,226,0.0,3.0,90,0.06,,,0.07,meteohub,2013-03-31 03:28:00,
2013-03-30 20:33:00,55.6,53.1,29.97,ENE,69,1.0,3.0,91,0.06,,,0.08,meteohub,2013-03-31 03:33:00,
2013-03-30 20:38:00,55.2,52.7,30.00,East,81,1.0,2.0,91,0.07,,,0.09,meteohub,2013-03-31 03:38:00,
2013-03-30 20:43:00,55.0,52.5,30.00,East,80,2.0,3.0,91,0.08,,,0.10,meteohub,2013-03-31 03:43:00,
2013-03-30 20:48:00,54.9,52.3,30.00,NNW,329,0.0,3.0,91,0.08,,,0.10,meteohub,2013-03-31 03:48:00,
2013-03-30 20:53:00,54.7,52.2,29.99,NNW,327,0.0,2.0,91,0.07,,,0.10,meteohub,2013-03-31 03:53:00,
2013-03-30 20:58:00,54.7,52.3,29.99,NNW,327,0.0,2.0,92,0.08,,,0.11,meteohub,2013-03-31 03:58:00,
2013-03-30 21:01:00,54.7,52.3,29.99,NW,325,0.0,2.0,92,0.08,,,0.11,meteohub,2013-03-31 04:01:00,
2013-03-30 21:02:00,54.7,52.3,29.99,NNW,327,1.0,1.0,92,0.08,,,0.11,meteohub,2013-03-31 04:02:00,
2013-03-30 21:04:00,54.7,52.3,29.99,NW,312,1.0,1.0,92,0.08,,,0.00,meteohub,2013-03-31 04:04:00,
2013-03-30 21:09:00,54.5,52.2,29.98,NW,311,1.0,2.0,92,0.05,,,0.00,meteohub,2013-03-31 04:09:00,
2013-03-30 21:14:00,54.3,52.3,29.98,West,281,3.0,3.0,93,0.04,,,0.00,meteohub,2013-03-31 04:14:00,
2013-03-30 21:19:00,54.1,51.8,29.98,WNW,298,2.0,3.0,92,0.03,,,0.00,meteohub,2013-03-31 04:19:00,
2013-03-30 21:25:00,54.1,51.8,29.96,NNE,28,0.0,3.0,92,0.03,,,0.00,meteohub,2013-03-31 04:25:00,
2013-03-30 21:30:00,54.1,51.8,29.96,NNE,28,0.0,5.0,92,0.01,,,0.00,meteohub,2013-03-31 04:30:00,
2013-03-30 21:35:00,54.1,52.2,29.96,NNE,28,0.0,1.0,93,0.01,,,0.00,meteohub,2013-03-31 04:35:00,
2013-03-30 21:40:00,54.3,52.3,29.99,SW,215,0.0,1.0,93,0.01,,,0.00,meteohub,2013-03-31 04:40:00,
2013-03-30 21:45:00,54.1,52.2,29.99,SW,215,0.0,1.0,93,0.01,,,0.00,meteohub,2013-03-31 04:45:00,
2013-03-30 21:50:00,54.1,52.2,29.99,SW,215,0.0,1.0,93,0.00,,,0.00,meteohub,2013-03-31 04:50:00,
2013-03-30 21:55:00,54.1,52.5,29.99,SW,215,1.0,1.0,94,0.00,,,0.00,meteohub,2013-03-31 04:55:00,
2013-03-30 22:00:00,54.3,52.7,29.99,SW,215,0.0,1.0,94,0.00,,,0.00,meteohub,2013-03-31 05:00:00,
2013-03-30 22:05:00,54.3,52.7,29.99,SW,215,1.0,1.0,94,0.00,,,0.00,meteohub,2013-03-31 05:05:00,
2013-03-30 22:10:00,54.3,52.7,29.99,North,350,2.0,2.0,94,0.00,,,0.00,meteohub,2013-03-31 05:10:00,
2013-03-30 22:16:00,54.3,52.7,29.99,North,350,1.0,3.0,94,0.00,,,0.00,meteohub,2013-03-31 05:16:00,
2013-03-30 22:21:00,54.3,52.7,29.97,NE,51,2.0,3.0,94,0.00,,,0.00,meteohub,2013-03-31 05:21:00,
2013-03-30 22:26:00,54.1,52.5,29.97,NE,47,0.0,3.0,94,0.00,,,0.00,meteohub,2013-03-31 05:26:00,
2013-03-30 22:31:00,54.0,52.3,29.97,SW,221,0.0,3.0,94,0.00,,,0.00,meteohub,2013-03-31 05:31:00,
2013-03-30 22:36:00,54.0,52.3,29.99,SW,221,0.0,3.0,94,0.00,,,0.00,meteohub,2013-03-31 05:36:00,
2013-03-30 22:41:00,54.1,52.7,29.99,SW,226,1.0,3.0,95,0.01,,,0.01,meteohub,2013-03-31 05:41:00,
2013-03-30 22:46:00,54.0,52.5,29.99,WSW,248,0.0,3.0,95,0.01,,,0.01,meteohub,2013-03-31 05:46:00,
2013-03-30 22:51:00,54.0,52.5,29.98,SW,222,0.0,3.0,95,0.01,,,0.01,meteohub,2013-03-31 05:51:00,
2013-03-30 22:56:00,54.0,52.5,29.98,SSW,205,0.0,2.0,95,0.01,,,0.01,meteohub,2013-03-31 05:56:00,
2013-03-30 23:01:00,54.0,52.5,29.98,SSW,207,0.0,2.0,95,0.01,,,0.01,meteohub,2013-03-31 06:01:00,
2013-03-30 23:07:00,54.1,52.7,29.99,NE,44,2.0,2.0,95,0.01,,,0.01,meteohub,2013-03-31 06:07:00,
2013-03-30 23:13:00,54.1,52.7,29.99,ENE,65,1.0,3.0,95,0.01,,,0.01,meteohub,2013-03-31 06:13:00,
2013-03-30 23:18:00,54.0,52.5,29.99,NE,44,1.0,3.0,95,0.02,,,0.01,meteohub,2013-03-31 06:18:00,
2013-03-30 23:23:00,54.0,52.5,29.98,NE,46,0.0,3.0,95,0.02,,,0.02,meteohub,2013-03-31 06:23:00,
2013-03-30 23:28:00,54.0,52.5,29.98,NE,46,0.0,3.0,95,0.03,,,0.03,meteohub,2013-03-31 06:28:00,
2013-03-30 23:34:00,54.0,52.5,29.98,West,280,1.0,1.0,95,0.02,,,0.03,meteohub,2013-03-31 06:34:00,
2013-03-30 23:39:00,54.0,52.5,29.97,West,281,1.0,2.0,95,0.02,,,0.04,meteohub,2013-03-31 06:39:00,
2013-03-30 23:44:00,53.8,52.3,29.97,NNW,331,0.0,2.0,95,0.03,,,0.04,meteohub,2013-03-31 06:44:00,
2013-03-30 23:49:00,53.8,52.3,29.97,NNW,329,0.0,2.0,95,0.03,,,0.04,meteohub,2013-03-31 06:49:00,
2013-03-30 23:54:00,53.8,52.3,29.98,WSW,246,0.0,1.0,95,0.03,,,0.04,meteohub,2013-03-31 06:54:00,
2013-03-30 23:59:00,53.8,52.3,29.98,NNE,29,0.0,1.0,95,0.03,,,0.04,meteohub,2013-03-31 06:59:00,